ADDS TAF Board (Experimental) INFO Settings

IDs: Format: Expanded Condensed

KSFO - San Francisco Intl, CA, US

Issued at 1503 UTC 27 Mar 2015
Updated at: 1539 UTC 27 Mar 2015
Time1456Z 27/16Z 27/17Z 27/18Z 27/19Z 27/20Z 27/21Z 27/22Z 27/23Z 28/00Z 28/01Z 28/02Z 28/03Z 28/04Z
Type OBS PRVL PRVL PRVL PRVL PRVL PRVL PRVL PRVL PRVL PRVL PRVL PRVL PRVL
VIS 10 >6 >6 >6 >6 >6 >6 >6 >6 >6 >6 >6 >6 >6
CIG -- -- -- -- -- -- -- -- -- -- -- -- -- --
Cover FEW FEW FEW FEW FEW FEW FEW FEW FEW FEW FEW FEW FEW FEW
FltCat VFR VFR VFR VFR VFR VFR VFR VFR VFR VFR VFR VFR VFR VFR
WX -- -- -- -- -- -- -- -- -- -- -- -- -- --
WDir 290 290 290 290 290 280 280 280 280 280 280 280 280 280
WSpd 14 12 12 12 12 15 15 20 20 20 20 20 20 20
WGst -- -- -- -- -- -- -- 25 25 25 25 25 25 25
R01/19
XWnd 14 12 12 12 12 14 14 19 19 19 19 19 19 19
XGst -- -- -- -- -- -- -- 24 24 24 24 24 24 24
HWnd -2 -1 -1 -1 -1 -4 -4 -6 -6 -6 -6 -6 -6 -6
HGst -- -- -- -- -- -- -- -7 -7 -7 -7 -7 -7 -7
R10/28
XWnd -2 -1 -1 -1 -1 -4 -4 -6 -6 -6 -6 -6 -6 -6
XGst -- -- -- -- -- -- -- -7 -7 -7 -7 -7 -7 -7
HWnd -14 -12 -12 -12 -12 -14 -14 -19 -19 -19 -19 -19 -19 -19
HGst -- -- -- -- -- -- -- -24 -24 -24 -24 -24 -24 -24

NOTE: TEMPO conditions in [brackets]. Keep in mind TEMPO conditions might be better (lower impact) than prevailing conditions.

Raw TAF
KSFO 271503Z 2715/2818 29012KT P6SM FEW003
  FM272000 28015KT P6SM FEW010
  FM272200 28020G25KT P6SM FEW010
  FM280500 28015G20KT P6SM SCT010 BKN200
  FM280700 28010G15KT P6SM BKN010


Raw METAR
KSFO 271456Z 29014KT 10SM FEW002 12/12 A3013 RMK AO2 SLP202 T01170117 53012
KSFO 271356Z 29013KT 10SM FEW002 11/11 A3011 RMK AO2 SLP195 T01110111
KSFO 271256Z 30011KT 10SM FEW002 12/12 A3010 RMK AO2 SLP192 T01170117

METAR Board
Radar Display
Forecast Discussion

TAF Board Legend

Potential Impact
Threat None Slight Moderate High
Visibility (sm) ≥5.1 5.1>X≥3 3>X≥1 <1
Ceiling (100 ft) ≥30.1 30.1>X≥10 10>X≥5 <5
Wind Speed (kt) <10 10≤X<20 20≤X<30 ≥30
Wind Gust (kt) <15 15≤X<25 25≤X<35 ≥35
Weather No Wx Reported VCTS,-TS,-FZRA,SN TS,FZRA +TS,+FZRA,+SN